sensor_id;sensor_type;location;lat;lon;timestamp;P1;durP1;ratioP1;P2;durP2;ratioP2
27833;SDS011;15200;50.570;7.244;2022-08-07T00:01:47;0.95;;;0.80;;
27833;SDS011;15200;50.570;7.244;2022-08-07T00:04:14;1.05;;;0.78;;
27833;SDS011;15200;50.570;7.244;2022-08-07T00:06:42;0.57;;;0.57;;
27833;SDS011;15200;50.570;7.244;2022-08-07T00:09:09;1.40;;;0.70;;
27833;SDS011;15200;50.570;7.244;2022-08-07T00:11:37;1.35;;;0.70;;
27833;SDS011;15200;50.570;7.244;2022-08-07T00:14:04;1.45;;;0.90;;
27833;SDS011;15200;50.570;7.244;2022-08-07T00:16:31;3.42;;;0.80;;
27833;SDS011;15200;50.570;7.244;2022-08-07T00:18:58;2.42;;;0.65;;
27833;SDS011;15200;50.570;7.244;2022-08-07T00:21:26;0.93;;;0.50;;
27833;SDS011;15200;50.570;7.244;2022-08-07T00:23:53;2.25;;;0.80;;
27833;SDS011;15200;50.570;7.244;2022-08-07T00:26:20;1.98;;;1.00;;
27833;SDS011;15200;50.570;7.244;2022-08-07T00:28:48;1.32;;;0.68;;
27833;SDS011;15200;50.570;7.244;2022-08-07T00:31:15;0.80;;;0.70;;
27833;SDS011;15200;50.570;7.244;2022-08-07T00:33:44;0.85;;;0.57;;
27833;SDS011;15200;50.570;7.244;2022-08-07T00:36:11;1.25;;;0.80;;
27833;SDS011;15200;50.570;7.244;2022-08-07T00:38:39;0.70;;;0.60;;
27833;SDS011;15200;50.570;7.244;2022-08-07T00:41:06;2.85;;;0.98;;
27833;SDS011;15200;50.570;7.244;2022-08-07T00:43:34;0.93;;;0.60;;
27833;SDS011;15200;50.570;7.244;2022-08-07T00:46:01;1.37;;;0.50;;
27833;SDS011;15200;50.570;7.244;2022-08-07T00:48:29;2.92;;;0.68;;
27833;SDS011;15200;50.570;7.244;2022-08-07T00:50:57;0.55;;;0.55;;
27833;SDS011;15200;50.570;7.244;2022-08-07T00:53:24;1.30;;;0.72;;
27833;SDS011;15200;50.570;7.244;2022-08-07T00:55:52;2.10;;;0.50;;
27833;SDS011;15200;50.570;7.244;2022-08-07T00:58:19;1.25;;;0.70;;
27833;SDS011;15200;50.570;7.244;2022-08-07T01:00:47;2.02;;;0.80;;
27833;SDS011;15200;50.570;7.244;2022-08-07T01:03:14;1.95;;;0.60;;
27833;SDS011;15200;50.570;7.244;2022-08-07T01:05:41;1.42;;;0.80;;
27833;SDS011;15200;50.570;7.244;2022-08-07T01:08:10;3.17;;;0.90;;
27833;SDS011;15200;50.570;7.244;2022-08-07T01:10:37;1.27;;;0.75;;
27833;SDS011;15200;50.570;7.244;2022-08-07T01:13:05;0.85;;;0.75;;
27833;SDS011;15200;50.570;7.244;2022-08-07T01:15:33;3.92;;;0.90;;
27833;SDS011;15200;50.570;7.244;2022-08-07T01:18:00;0.90;;;0.70;;
27833;SDS011;15200;50.570;7.244;2022-08-07T01:20:30;1.47;;;0.85;;
27833;SDS011;15200;50.570;7.244;2022-08-07T01:22:56;2.17;;;0.82;;
27833;SDS011;15200;50.570;7.244;2022-08-07T01:25:24;1.55;;;0.90;;
27833;SDS011;15200;50.570;7.244;2022-08-07T01:27:53;1.62;;;0.90;;
27833;SDS011;15200;50.570;7.244;2022-08-07T01:30:21;1.57;;;0.90;;
27833;SDS011;15200;50.570;7.244;2022-08-07T01:32:49;1.00;;;0.80;;
27833;SDS011;15200;50.570;7.244;2022-08-07T01:35:17;1.60;;;1.15;;
27833;SDS011;15200;50.570;7.244;2022-08-07T01:37:44;1.67;;;1.00;;
27833;SDS011;15200;50.570;7.244;2022-08-07T01:40:13;2.35;;;1.02;;
27833;SDS011;15200;50.570;7.244;2022-08-07T01:42:42;1.02;;;0.80;;
27833;SDS011;15200;50.570;7.244;2022-08-07T01:45:09;2.02;;;1.05;;
27833;SDS011;15200;50.570;7.244;2022-08-07T01:47:37;0.80;;;0.80;;
27833;SDS011;15200;50.570;7.244;2022-08-07T01:50:04;2.77;;;1.22;;
27833;SDS011;15200;50.570;7.244;2022-08-07T01:52:32;1.80;;;1.00;;
27833;SDS011;15200;50.570;7.244;2022-08-07T01:55:00;2.22;;;0.98;;
27833;SDS011;15200;50.570;7.244;2022-08-07T01:57:29;2.20;;;0.90;;
27833;SDS011;15200;50.570;7.244;2022-08-07T02:02:40;1.22;;;1.12;;
27833;SDS011;15200;50.570;7.244;2022-08-07T02:04:58;0.95;;;0.85;;
27833;SDS011;15200;50.570;7.244;2022-08-07T02:07:29;2.85;;;1.00;;
27833;SDS011;15200;50.570;7.244;2022-08-07T02:09:56;0.85;;;0.78;;
27833;SDS011;15200;50.570;7.244;2022-08-07T02:12:24;5.05;;;1.35;;
27833;SDS011;15200;50.570;7.244;2022-08-07T02:14:54;2.75;;;0.82;;
27833;SDS011;15200;50.570;7.244;2022-08-07T02:17:22;1.02;;;0.90;;
27833;SDS011;15200;50.570;7.244;2022-08-07T02:19:50;1.42;;;1.20;;
27833;SDS011;15200;50.570;7.244;2022-08-07T02:22:19;1.02;;;0.85;;
27833;SDS011;15200;50.570;7.244;2022-08-07T02:24:49;1.55;;;0.90;;
27833;SDS011;15200;50.570;7.244;2022-08-07T02:27:18;1.00;;;0.90;;
27833;SDS011;15200;50.570;7.244;2022-08-07T02:29:46;4.50;;;1.10;;
27833;SDS011;15200;50.570;7.244;2022-08-07T02:32:14;5.40;;;0.88;;
27833;SDS011;15200;50.570;7.244;2022-08-07T02:34:42;5.35;;;1.17;;
27833;SDS011;15200;50.570;7.244;2022-08-07T02:37:10;11.25;;;1.90;;
27833;SDS011;15200;50.570;7.244;2022-08-07T02:39:39;12.23;;;2.08;;
27833;SDS011;15200;50.570;7.244;2022-08-07T02:42:06;4.42;;;0.93;;
27833;SDS011;15200;50.570;7.244;2022-08-07T02:44:34;6.30;;;1.35;;
27833;SDS011;15200;50.570;7.244;2022-08-07T02:47:02;1.20;;;1.00;;
27833;SDS011;15200;50.570;7.244;2022-08-07T02:49:30;6.22;;;1.27;;
27833;SDS011;15200;50.570;7.244;2022-08-07T02:51:57;1.95;;;1.10;;
27833;SDS011;15200;50.570;7.244;2022-08-07T02:54:28;2.02;;;1.30;;
27833;SDS011;15200;50.570;7.244;2022-08-07T02:56:57;1.72;;;1.00;;
27833;SDS011;15200;50.570;7.244;2022-08-07T02:59:25;2.87;;;1.30;;
27833;SDS011;15200;50.570;7.244;2022-08-07T03:01:53;5.45;;;1.20;;
27833;SDS011;15200;50.570;7.244;2022-08-07T03:04:21;3.25;;;1.30;;
27833;SDS011;15200;50.570;7.244;2022-08-07T03:06:49;2.08;;;0.90;;
27833;SDS011;15200;50.570;7.244;2022-08-07T03:09:18;1.42;;;1.05;;
27833;SDS011;15200;50.570;7.244;2022-08-07T03:11:46;1.22;;;1.00;;
27833;SDS011;15200;50.570;7.244;2022-08-07T03:14:14;3.05;;;1.00;;
27833;SDS011;15200;50.570;7.244;2022-08-07T03:16:42;1.87;;;0.90;;
27833;SDS011;15200;50.570;7.244;2022-08-07T03:19:09;1.00;;;0.90;;
27833;SDS011;15200;50.570;7.244;2022-08-07T03:21:36;1.98;;;0.90;;
27833;SDS011;15200;50.570;7.244;2022-08-07T03:24:04;4.75;;;1.20;;
27833;SDS011;15200;50.570;7.244;2022-08-07T03:26:31;2.02;;;0.82;;
27833;SDS011;15200;50.570;7.244;2022-08-07T03:29:00;2.25;;;0.90;;
27833;SDS011;15200;50.570;7.244;2022-08-07T03:31:28;2.60;;;1.22;;
27833;SDS011;15200;50.570;7.244;2022-08-07T03:34:01;2.40;;;1.20;;
27833;SDS011;15200;50.570;7.244;2022-08-07T03:36:25;4.70;;;1.67;;
27833;SDS011;15200;50.570;7.244;2022-08-07T03:38:54;1.87;;;1.05;;
27833;SDS011;15200;50.570;7.244;2022-08-07T03:41:22;2.83;;;0.85;;
27833;SDS011;15200;50.570;7.244;2022-08-07T03:43:49;3.90;;;1.10;;
27833;SDS011;15200;50.570;7.244;2022-08-07T03:46:16;2.83;;;0.95;;
27833;SDS011;15200;50.570;7.244;2022-08-07T03:48:44;1.82;;;1.07;;
27833;SDS011;15200;50.570;7.244;2022-08-07T03:51:11;1.00;;;0.70;;
27833;SDS011;15200;50.570;7.244;2022-08-07T03:53:39;2.20;;;1.10;;
27833;SDS011;15200;50.570;7.244;2022-08-07T03:56:06;1.10;;;0.80;;
27833;SDS011;15200;50.570;7.244;2022-08-07T03:58:36;4.33;;;0.95;;
27833;SDS011;15200;50.570;7.244;2022-08-07T04:01:03;1.27;;;0.82;;
27833;SDS011;15200;50.570;7.244;2022-08-07T04:03:31;1.35;;;0.90;;
27833;SDS011;15200;50.570;7.244;2022-08-07T04:05:58;1.77;;;0.80;;
27833;SDS011;15200;50.570;7.244;2022-08-07T04:08:26;2.80;;;0.78;;
27833;SDS011;15200;50.570;7.244;2022-08-07T04:10:53;1.20;;;1.00;;
27833;SDS011;15200;50.570;7.244;2022-08-07T04:13:21;0.62;;;0.62;;
27833;SDS011;15200;50.570;7.244;2022-08-07T04:15:49;1.05;;;0.80;;
27833;SDS011;15200;50.570;7.244;2022-08-07T04:18:17;1.47;;;0.88;;
27833;SDS011;15200;50.570;7.244;2022-08-07T04:20:44;0.93;;;0.72;;
27833;SDS011;15200;50.570;7.244;2022-08-07T04:23:11;1.60;;;0.72;;
27833;SDS011;15200;50.570;7.244;2022-08-07T04:25:39;1.42;;;0.80;;
27833;SDS011;15200;50.570;7.244;2022-08-07T04:28:07;0.98;;;0.75;;
27833;SDS011;15200;50.570;7.244;2022-08-07T04:30:35;1.25;;;0.90;;
27833;SDS011;15200;50.570;7.244;2022-08-07T04:33:06;2.65;;;1.05;;
27833;SDS011;15200;50.570;7.244;2022-08-07T04:35:35;10.08;;;1.17;;
27833;SDS011;15200;50.570;7.244;2022-08-07T04:38:05;18.87;;;2.55;;
27833;SDS011;15200;50.570;7.244;2022-08-07T04:40:34;19.40;;;2.85;;
27833;SDS011;15200;50.570;7.244;2022-08-07T04:43:01;11.05;;;2.30;;
27833;SDS011;15200;50.570;7.244;2022-08-07T04:45:33;8.33;;;2.65;;
27833;SDS011;15200;50.570;7.244;2022-08-07T04:48:06;9.40;;;2.47;;
27833;SDS011;15200;50.570;7.244;2022-08-07T04:50:40;6.40;;;1.70;;
27833;SDS011;15200;50.570;7.244;2022-08-07T04:53:06;5.97;;;1.77;;
27833;SDS011;15200;50.570;7.244;2022-08-07T04:58:23;4.10;;;1.25;;
27833;SDS011;15200;50.570;7.244;2022-08-07T05:00:58;3.33;;;1.00;;
27833;SDS011;15200;50.570;7.244;2022-08-07T05:03:26;3.35;;;1.12;;
27833;SDS011;15200;50.570;7.244;2022-08-07T05:08:39;2.25;;;1.07;;
27833;SDS011;15200;50.570;7.244;2022-08-07T05:11:04;2.50;;;1.10;;
27833;SDS011;15200;50.570;7.244;2022-08-07T05:13:34;3.42;;;1.02;;
27833;SDS011;15200;50.570;7.244;2022-08-07T05:16:06;1.22;;;1.12;;
27833;SDS011;15200;50.570;7.244;2022-08-07T05:18:35;0.98;;;0.90;;
27833;SDS011;15200;50.570;7.244;2022-08-07T05:21:03;2.45;;;0.90;;
27833;SDS011;15200;50.570;7.244;2022-08-07T05:23:38;4.45;;;1.02;;
27833;SDS011;15200;50.570;7.244;2022-08-07T05:26:09;1.10;;;0.93;;
27833;SDS011;15200;50.570;7.244;2022-08-07T05:28:35;2.80;;;0.80;;
27833;SDS011;15200;50.570;7.244;2022-08-07T05:31:03;3.65;;;0.90;;
27833;SDS011;15200;50.570;7.244;2022-08-07T05:33:32;1.25;;;0.90;;
27833;SDS011;15200;50.570;7.244;2022-08-07T05:36:00;1.75;;;0.98;;
27833;SDS011;15200;50.570;7.244;2022-08-07T05:38:27;1.20;;;0.90;;
27833;SDS011;15200;50.570;7.244;2022-08-07T05:40:55;2.08;;;0.95;;
27833;SDS011;15200;50.570;7.244;2022-08-07T05:43:23;1.25;;;0.90;;
27833;SDS011;15200;50.570;7.244;2022-08-07T05:45:50;1.10;;;1.00;;
27833;SDS011;15200;50.570;7.244;2022-08-07T05:48:18;3.20;;;1.15;;
27833;SDS011;15200;50.570;7.244;2022-08-07T05:50:46;0.75;;;0.75;;
27833;SDS011;15200;50.570;7.244;2022-08-07T05:53:13;3.90;;;1.13;;
27833;SDS011;15200;50.570;7.244;2022-08-07T05:55:41;1.72;;;1.00;;
27833;SDS011;15200;50.570;7.244;2022-08-07T05:58:08;1.15;;;0.93;;
27833;SDS011;15200;50.570;7.244;2022-08-07T06:00:36;3.75;;;0.80;;
27833;SDS011;15200;50.570;7.244;2022-08-07T06:03:05;1.07;;;0.98;;
27833;SDS011;15200;50.570;7.244;2022-08-07T06:05:34;1.17;;;0.80;;
27833;SDS011;15200;50.570;7.244;2022-08-07T06:08:01;3.08;;;0.78;;
27833;SDS011;15200;50.570;7.244;2022-08-07T06:10:29;2.12;;;0.98;;
27833;SDS011;15200;50.570;7.244;2022-08-07T06:12:56;0.60;;;0.60;;
27833;SDS011;15200;50.570;7.244;2022-08-07T06:15:24;3.22;;;0.93;;
27833;SDS011;15200;50.570;7.244;2022-08-07T06:17:52;2.83;;;1.05;;
27833;SDS011;15200;50.570;7.244;2022-08-07T06:20:20;1.80;;;1.00;;
27833;SDS011;15200;50.570;7.244;2022-08-07T06:22:48;1.10;;;1.00;;
27833;SDS011;15200;50.570;7.244;2022-08-07T06:25:17;1.92;;;0.93;;
27833;SDS011;15200;50.570;7.244;2022-08-07T06:27:44;2.05;;;1.00;;
27833;SDS011;15200;50.570;7.244;2022-08-07T06:30:11;4.42;;;1.20;;
27833;SDS011;15200;50.570;7.244;2022-08-07T06:32:39;1.00;;;0.98;;
27833;SDS011;15200;50.570;7.244;2022-08-07T06:35:06;5.30;;;1.40;;
27833;SDS011;15200;50.570;7.244;2022-08-07T06:37:34;1.07;;;0.82;;
27833;SDS011;15200;50.570;7.244;2022-08-07T06:40:01;1.30;;;1.10;;
27833;SDS011;15200;50.570;7.244;2022-08-07T06:42:34;2.58;;;0.90;;
27833;SDS011;15200;50.570;7.244;2022-08-07T06:45:05;2.83;;;1.10;;
27833;SDS011;15200;50.570;7.244;2022-08-07T06:47:34;3.27;;;1.50;;
27833;SDS011;15200;50.570;7.244;2022-08-07T06:50:01;1.72;;;0.95;;
27833;SDS011;15200;50.570;7.244;2022-08-07T06:52:32;2.65;;;1.12;;
27833;SDS011;15200;50.570;7.244;2022-08-07T06:55:01;1.00;;;0.90;;
27833;SDS011;15200;50.570;7.244;2022-08-07T06:57:29;2.80;;;1.00;;
27833;SDS011;15200;50.570;7.244;2022-08-07T06:59:57;3.27;;;1.15;;
27833;SDS011;15200;50.570;7.244;2022-08-07T07:02:25;1.45;;;1.35;;
27833;SDS011;15200;50.570;7.244;2022-08-07T07:04:53;2.35;;;1.15;;
27833;SDS011;15200;50.570;7.244;2022-08-07T07:07:20;1.35;;;1.20;;
27833;SDS011;15200;50.570;7.244;2022-08-07T07:09:49;1.70;;;0.98;;
27833;SDS011;15200;50.570;7.244;2022-08-07T07:15:04;1.60;;;1.05;;
27833;SDS011;15200;50.570;7.244;2022-08-07T07:17:36;2.10;;;0.93;;
27833;SDS011;15200;50.570;7.244;2022-08-07T07:20:05;1.35;;;1.12;;
27833;SDS011;15200;50.570;7.244;2022-08-07T07:22:32;4.25;;;1.20;;
27833;SDS011;15200;50.570;7.244;2022-08-07T07:25:01;3.40;;;1.00;;
27833;SDS011;15200;50.570;7.244;2022-08-07T07:27:30;1.82;;;1.20;;
27833;SDS011;15200;50.570;7.244;2022-08-07T07:29:59;3.40;;;1.00;;
27833;SDS011;15200;50.570;7.244;2022-08-07T07:32:27;1.25;;;0.78;;
27833;SDS011;15200;50.570;7.244;2022-08-07T07:34:57;2.05;;;0.80;;
27833;SDS011;15200;50.570;7.244;2022-08-07T07:37:25;5.15;;;0.75;;
27833;SDS011;15200;50.570;7.244;2022-08-07T07:39:54;3.45;;;0.57;;
27833;SDS011;15200;50.570;7.244;2022-08-07T07:42:23;0.50;;;0.50;;
27833;SDS011;15200;50.570;7.244;2022-08-07T07:44:52;1.40;;;0.70;;
27833;SDS011;15200;50.570;7.244;2022-08-07T07:47:20;1.52;;;0.57;;
27833;SDS011;15200;50.570;7.244;2022-08-07T07:49:48;1.15;;;0.62;;
27833;SDS011;15200;50.570;7.244;2022-08-07T07:52:17;2.55;;;0.70;;
27833;SDS011;15200;50.570;7.244;2022-08-07T07:54:47;2.27;;;0.85;;
27833;SDS011;15200;50.570;7.244;2022-08-07T07:57:15;2.65;;;0.70;;
27833;SDS011;15200;50.570;7.244;2022-08-07T07:59:42;0.80;;;0.80;;
27833;SDS011;15200;50.570;7.244;2022-08-07T08:02:11;0.93;;;0.80;;
27833;SDS011;15200;50.570;7.244;2022-08-07T08:04:40;2.10;;;0.80;;
27833;SDS011;15200;50.570;7.244;2022-08-07T08:07:08;1.95;;;0.78;;
27833;SDS011;15200;50.570;7.244;2022-08-07T08:09:36;1.22;;;0.60;;
27833;SDS011;15200;50.570;7.244;2022-08-07T08:12:05;0.60;;;0.60;;
27833;SDS011;15200;50.570;7.244;2022-08-07T08:14:34;0.53;;;0.50;;
27833;SDS011;15200;50.570;7.244;2022-08-07T08:17:02;0.75;;;0.70;;
27833;SDS011;15200;50.570;7.244;2022-08-07T08:19:29;1.10;;;0.53;;
27833;SDS011;15200;50.570;7.244;2022-08-07T08:21:58;0.95;;;0.55;;
27833;SDS011;15200;50.570;7.244;2022-08-07T08:24:44;1.72;;;0.53;;
27833;SDS011;15200;50.570;7.244;2022-08-07T08:27:32;1.67;;;0.68;;
27833;SDS011;15200;50.570;7.244;2022-08-07T08:30:04;0.78;;;0.50;;
27833;SDS011;15200;50.570;7.244;2022-08-07T08:32:33;1.95;;;0.53;;
27833;SDS011;15200;50.570;7.244;2022-08-07T08:35:00;2.67;;;0.60;;
27833;SDS011;15200;50.570;7.244;2022-08-07T08:37:29;3.12;;;0.45;;
27833;SDS011;15200;50.570;7.244;2022-08-07T08:39:57;2.27;;;0.50;;
27833;SDS011;15200;50.570;7.244;2022-08-07T08:42:44;1.55;;;0.55;;
27833;SDS011;15200;50.570;7.244;2022-08-07T08:47:46;0.88;;;0.50;;
27833;SDS011;15200;50.570;7.244;2022-08-07T08:50:26;1.30;;;0.50;;
27833;SDS011;15200;50.570;7.244;2022-08-07T08:58:13;0.80;;;0.50;;
27833;SDS011;15200;50.570;7.244;2022-08-07T09:00:39;2.52;;;0.62;;
27833;SDS011;15200;50.570;7.244;2022-08-07T09:03:14;1.17;;;0.35;;
27833;SDS011;15200;50.570;7.244;2022-08-07T09:05:45;0.45;;;0.40;;
27833;SDS011;15200;50.570;7.244;2022-08-07T09:08:22;0.47;;;0.40;;
27833;SDS011;15200;50.570;7.244;2022-08-07T09:13:53;1.85;;;0.42;;
27833;SDS011;15200;50.570;7.244;2022-08-07T09:16:23;1.80;;;0.42;;
27833;SDS011;15200;50.570;7.244;2022-08-07T09:19:01;2.20;;;0.55;;
27833;SDS011;15200;50.570;7.244;2022-08-07T09:21:31;1.82;;;0.40;;
27833;SDS011;15200;50.570;7.244;2022-08-07T09:24:44;5.20;;;0.95;;
27833;SDS011;15200;50.570;7.244;2022-08-07T09:29:16;2.90;;;0.70;;
27833;SDS011;15200;50.570;7.244;2022-08-07T09:36:46;0.65;;;0.35;;
27833;SDS011;15200;50.570;7.244;2022-08-07T09:41:58;5.03;;;0.60;;
27833;SDS011;15200;50.570;7.244;2022-08-07T09:52:43;0.68;;;0.40;;
27833;SDS011;15200;50.570;7.244;2022-08-07T09:55:09;2.05;;;0.30;;
27833;SDS011;15200;50.570;7.244;2022-08-07T09:57:42;1.30;;;0.68;;
27833;SDS011;15200;50.570;7.244;2022-08-07T10:05:19;2.00;;;0.40;;
27833;SDS011;15200;50.570;7.244;2022-08-07T10:10:23;1.90;;;0.23;;
27833;SDS011;15200;50.570;7.244;2022-08-07T10:15:24;3.83;;;0.47;;
27833;SDS011;15200;50.570;7.244;2022-08-07T10:20:44;1.62;;;0.40;;
27833;SDS011;15200;50.570;7.244;2022-08-07T10:25:56;0.45;;;0.40;;
27833;SDS011;15200;50.570;7.244;2022-08-07T10:28:30;0.47;;;0.30;;
27833;SDS011;15200;50.570;7.244;2022-08-07T10:31:02;1.22;;;0.57;;
27833;SDS011;15200;50.570;7.244;2022-08-07T10:33:33;3.98;;;0.35;;
27833;SDS011;15200;50.570;7.244;2022-08-07T10:44:09;0.35;;;0.35;;
27833;SDS011;15200;50.570;7.244;2022-08-07T10:46:38;2.25;;;0.82;;
27833;SDS011;15200;50.570;7.244;2022-08-07T10:51:44;0.42;;;0.30;;
27833;SDS011;15200;50.570;7.244;2022-08-07T10:54:16;0.45;;;0.30;;
27833;SDS011;15200;50.570;7.244;2022-08-07T11:07:42;3.30;;;0.70;;
27833;SDS011;15200;50.570;7.244;2022-08-07T11:10:18;5.15;;;0.57;;
27833;SDS011;15200;50.570;7.244;2022-08-07T11:12:43;2.17;;;0.50;;
27833;SDS011;15200;50.570;7.244;2022-08-07T11:15:10;1.92;;;0.35;;
27833;SDS011;15200;50.570;7.244;2022-08-07T11:17:42;1.90;;;0.35;;
27833;SDS011;15200;50.570;7.244;2022-08-07T11:20:14;2.00;;;0.40;;
27833;SDS011;15200;50.570;7.244;2022-08-07T11:22:42;1.87;;;0.40;;
27833;SDS011;15200;50.570;7.244;2022-08-07T11:25:15;0.30;;;0.28;;
27833;SDS011;15200;50.570;7.244;2022-08-07T11:27:47;0.55;;;0.35;;
27833;SDS011;15200;50.570;7.244;2022-08-07T11:30:17;0.72;;;0.40;;
27833;SDS011;15200;50.570;7.244;2022-08-07T11:32:43;1.72;;;0.50;;
27833;SDS011;15200;50.570;7.244;2022-08-07T11:35:19;2.42;;;0.30;;
27833;SDS011;15200;50.570;7.244;2022-08-07T11:37:49;1.37;;;0.50;;
27833;SDS011;15200;50.570;7.244;2022-08-07T11:45:50;2.35;;;0.50;;
27833;SDS011;15200;50.570;7.244;2022-08-07T11:51:19;2.62;;;0.50;;
27833;SDS011;15200;50.570;7.244;2022-08-07T11:53:54;1.32;;;0.40;;
27833;SDS011;15200;50.570;7.244;2022-08-07T11:56:40;0.57;;;0.40;;
27833;SDS011;15200;50.570;7.244;2022-08-07T11:59:11;1.05;;;0.30;;
27833;SDS011;15200;50.570;7.244;2022-08-07T12:06:59;0.78;;;0.40;;
27833;SDS011;15200;50.570;7.244;2022-08-07T12:09:34;1.45;;;0.40;;
27833;SDS011;15200;50.570;7.244;2022-08-07T12:12:06;4.17;;;0.30;;
27833;SDS011;15200;50.570;7.244;2022-08-07T12:14:37;0.40;;;0.30;;
27833;SDS011;15200;50.570;7.244;2022-08-07T12:17:04;2.37;;;0.40;;
27833;SDS011;15200;50.570;7.244;2022-08-07T12:22:21;5.42;;;0.50;;
27833;SDS011;15200;50.570;7.244;2022-08-07T12:25:02;1.32;;;0.30;;
27833;SDS011;15200;50.570;7.244;2022-08-07T12:27:50;2.35;;;0.50;;
27833;SDS011;15200;50.570;7.244;2022-08-07T12:30:18;1.32;;;0.50;;
27833;SDS011;15200;50.570;7.244;2022-08-07T12:32:57;0.62;;;0.30;;
27833;SDS011;15200;50.570;7.244;2022-08-07T12:35:25;1.22;;;0.42;;
27833;SDS011;15200;50.570;7.244;2022-08-07T12:37:56;0.42;;;0.37;;
27833;SDS011;15200;50.570;7.244;2022-08-07T12:40:24;0.55;;;0.40;;
27833;SDS011;15200;50.570;7.244;2022-08-07T12:42:52;2.55;;;0.65;;
27833;SDS011;15200;50.570;7.244;2022-08-07T12:45:29;1.32;;;0.47;;
27833;SDS011;15200;50.570;7.244;2022-08-07T12:48:01;2.12;;;0.42;;
27833;SDS011;15200;50.570;7.244;2022-08-07T12:50:28;2.00;;;0.40;;
27833;SDS011;15200;50.570;7.244;2022-08-07T12:52:58;0.50;;;0.40;;
27833;SDS011;15200;50.570;7.244;2022-08-07T12:57:54;1.65;;;0.35;;
27833;SDS011;15200;50.570;7.244;2022-08-07T13:00:26;1.27;;;0.42;;
27833;SDS011;15200;50.570;7.244;2022-08-07T13:05:52;0.47;;;0.37;;
27833;SDS011;15200;50.570;7.244;2022-08-07T13:08:34;0.85;;;0.40;;
27833;SDS011;15200;50.570;7.244;2022-08-07T13:11:07;0.72;;;0.30;;
27833;SDS011;15200;50.570;7.244;2022-08-07T13:16:10;2.37;;;0.55;;
27833;SDS011;15200;50.570;7.244;2022-08-07T13:21:37;2.05;;;0.40;;
27833;SDS011;15200;50.570;7.244;2022-08-07T13:24:07;0.53;;;0.30;;
27833;SDS011;15200;50.570;7.244;2022-08-07T13:26:41;1.45;;;0.30;;
27833;SDS011;15200;50.570;7.244;2022-08-07T13:29:11;0.53;;;0.30;;
27833;SDS011;15200;50.570;7.244;2022-08-07T13:31:44;2.40;;;0.60;;
27833;SDS011;15200;50.570;7.244;2022-08-07T13:34:12;0.70;;;0.40;;
27833;SDS011;15200;50.570;7.244;2022-08-07T13:36:41;1.37;;;0.37;;
27833;SDS011;15200;50.570;7.244;2022-08-07T13:39:16;0.35;;;0.30;;
27833;SDS011;15200;50.570;7.244;2022-08-07T13:41:44;1.75;;;0.47;;
27833;SDS011;15200;50.570;7.244;2022-08-07T13:44:13;1.05;;;0.60;;
27833;SDS011;15200;50.570;7.244;2022-08-07T13:46:41;0.65;;;0.37;;
27833;SDS011;15200;50.570;7.244;2022-08-07T13:49:10;2.85;;;0.45;;
27833;SDS011;15200;50.570;7.244;2022-08-07T13:51:38;7.45;;;0.65;;
27833;SDS011;15200;50.570;7.244;2022-08-07T13:54:12;0.90;;;0.50;;
27833;SDS011;15200;50.570;7.244;2022-08-07T13:56:37;1.70;;;0.55;;
27833;SDS011;15200;50.570;7.244;2022-08-07T13:59:12;3.83;;;0.55;;
27833;SDS011;15200;50.570;7.244;2022-08-07T14:01:37;22.07;;;1.50;;
27833;SDS011;15200;50.570;7.244;2022-08-07T14:04:14;0.93;;;0.35;;
27833;SDS011;15200;50.570;7.244;2022-08-07T14:06:46;1.05;;;0.40;;
27833;SDS011;15200;50.570;7.244;2022-08-07T14:09:18;1.10;;;0.45;;
27833;SDS011;15200;50.570;7.244;2022-08-07T14:11:55;1.20;;;0.40;;
27833;SDS011;15200;50.570;7.244;2022-08-07T14:14:14;1.98;;;0.50;;
27833;SDS011;15200;50.570;7.244;2022-08-07T14:16:43;0.45;;;0.30;;
27833;SDS011;15200;50.570;7.244;2022-08-07T14:19:17;0.90;;;0.40;;
27833;SDS011;15200;50.570;7.244;2022-08-07T14:21:46;2.25;;;0.50;;
27833;SDS011;15200;50.570;7.244;2022-08-07T14:24:50;0.45;;;0.20;;
27833;SDS011;15200;50.570;7.244;2022-08-07T14:26:50;0.62;;;0.40;;
27833;SDS011;15200;50.570;7.244;2022-08-07T14:29:19;2.33;;;0.40;;
27833;SDS011;15200;50.570;7.244;2022-08-07T14:31:47;2.10;;;0.30;;
27833;SDS011;15200;50.570;7.244;2022-08-07T14:34:16;2.92;;;0.50;;
27833;SDS011;15200;50.570;7.244;2022-08-07T14:36:46;2.37;;;0.50;;
27833;SDS011;15200;50.570;7.244;2022-08-07T14:39:13;1.60;;;0.60;;
27833;SDS011;15200;50.570;7.244;2022-08-07T14:41:42;1.75;;;0.35;;
27833;SDS011;15200;50.570;7.244;2022-08-07T14:44:10;0.80;;;0.40;;
27833;SDS011;15200;50.570;7.244;2022-08-07T14:46:38;2.42;;;0.40;;
27833;SDS011;15200;50.570;7.244;2022-08-07T14:49:06;0.68;;;0.60;;
27833;SDS011;15200;50.570;7.244;2022-08-07T14:51:34;1.15;;;0.55;;
27833;SDS011;15200;50.570;7.244;2022-08-07T14:54:03;2.05;;;0.37;;
27833;SDS011;15200;50.570;7.244;2022-08-07T14:56:31;0.47;;;0.40;;
27833;SDS011;15200;50.570;7.244;2022-08-07T14:59:04;2.55;;;0.70;;
27833;SDS011;15200;50.570;7.244;2022-08-07T15:01:29;1.12;;;0.50;;
27833;SDS011;15200;50.570;7.244;2022-08-07T15:04:03;2.37;;;0.50;;
27833;SDS011;15200;50.570;7.244;2022-08-07T15:06:34;1.07;;;0.42;;
27833;SDS011;15200;50.570;7.244;2022-08-07T15:09:08;0.72;;;0.50;;
27833;SDS011;15200;50.570;7.244;2022-08-07T15:11:32;1.40;;;0.40;;
27833;SDS011;15200;50.570;7.244;2022-08-07T15:14:01;0.35;;;0.35;;
27833;SDS011;15200;50.570;7.244;2022-08-07T15:19:08;2.05;;;0.60;;
27833;SDS011;15200;50.570;7.244;2022-08-07T15:21:36;1.72;;;0.50;;
27833;SDS011;15200;50.570;7.244;2022-08-07T15:24:06;1.27;;;0.42;;
27833;SDS011;15200;50.570;7.244;2022-08-07T15:26:37;1.47;;;0.30;;
27833;SDS011;15200;50.570;7.244;2022-08-07T15:29:05;1.70;;;0.50;;
27833;SDS011;15200;50.570;7.244;2022-08-07T15:31:33;1.10;;;0.55;;
27833;SDS011;15200;50.570;7.244;2022-08-07T15:34:01;0.55;;;0.40;;
27833;SDS011;15200;50.570;7.244;2022-08-07T15:36:30;1.37;;;0.60;;
27833;SDS011;15200;50.570;7.244;2022-08-07T15:39:00;0.33;;;0.33;;
27833;SDS011;15200;50.570;7.244;2022-08-07T15:41:28;0.53;;;0.40;;
27833;SDS011;15200;50.570;7.244;2022-08-07T15:43:57;2.92;;;0.62;;
27833;SDS011;15200;50.570;7.244;2022-08-07T15:46:25;1.42;;;0.40;;
27833;SDS011;15200;50.570;7.244;2022-08-07T15:48:54;1.02;;;0.40;;
27833;SDS011;15200;50.570;7.244;2022-08-07T15:51:24;3.05;;;0.40;;
27833;SDS011;15200;50.570;7.244;2022-08-07T15:53:52;0.47;;;0.40;;
27833;SDS011;15200;50.570;7.244;2022-08-07T15:56:42;1.05;;;0.40;;
27833;SDS011;15200;50.570;7.244;2022-08-07T15:58:50;0.70;;;0.40;;
27833;SDS011;15200;50.570;7.244;2022-08-07T16:01:20;0.98;;;0.50;;
27833;SDS011;15200;50.570;7.244;2022-08-07T16:03:48;0.72;;;0.40;;
27833;SDS011;15200;50.570;7.244;2022-08-07T16:06:23;0.65;;;0.30;;
27833;SDS011;15200;50.570;7.244;2022-08-07T16:08:45;1.37;;;0.40;;
27833;SDS011;15200;50.570;7.244;2022-08-07T16:11:28;1.30;;;0.53;;
27833;SDS011;15200;50.570;7.244;2022-08-07T16:13:53;0.90;;;0.53;;
27833;SDS011;15200;50.570;7.244;2022-08-07T16:21:52;5.55;;;0.50;;
27833;SDS011;15200;50.570;7.244;2022-08-07T16:32:13;3.15;;;0.50;;
27833;SDS011;15200;50.570;7.244;2022-08-07T16:34:43;0.98;;;0.47;;
27833;SDS011;15200;50.570;7.244;2022-08-07T16:40:02;1.95;;;0.30;;
27833;SDS011;15200;50.570;7.244;2022-08-07T16:50:35;1.50;;;0.68;;
27833;SDS011;15200;50.570;7.244;2022-08-07T16:55:39;0.95;;;0.40;;
27833;SDS011;15200;50.570;7.244;2022-08-07T17:03:26;2.00;;;0.62;;
27833;SDS011;15200;50.570;7.244;2022-08-07T17:08:45;0.78;;;0.60;;
27833;SDS011;15200;50.570;7.244;2022-08-07T17:11:12;2.35;;;0.47;;
27833;SDS011;15200;50.570;7.244;2022-08-07T17:16:11;1.57;;;0.50;;
27833;SDS011;15200;50.570;7.244;2022-08-07T17:21:13;2.77;;;0.42;;
27833;SDS011;15200;50.570;7.244;2022-08-07T17:26:16;0.55;;;0.33;;
27833;SDS011;15200;50.570;7.244;2022-08-07T17:34:15;0.85;;;0.40;;
27833;SDS011;15200;50.570;7.244;2022-08-07T17:36:32;1.25;;;0.40;;